Time;durP1;ratioP1;P1;durP2;ratioP2;P2;SDS_P1;SDS_P2;PMS_P1;PMS_P2;Temp;Humidity;BMP_temperature;BMP_pressure;BME280_temperature;BME280_humidity;BME280_pressure;Samples;Min_cycle;Max_cycle;Signal;HPM_P1;HPM_P2
2024/02/26 00:00:55;;;;;;;1.27;0.63;;;;;;;;;;4985251;28;86803;-53
2024/02/26 00:03:21;;;;;;;2.20;0.57;;;;;;;;;;4988316;28;87008;-55
2024/02/26 00:05:46;;;;;;;1.63;0.60;;;;;;;;;;4984036;28;88061;-54
2024/02/26 00:08:11;;;;;;;2.30;0.80;;;;;;;;;;4982362;28;88822;-53
2024/02/26 00:10:36;;;;;;;2.43;1.10;;;;;;;;;;4993374;28;87130;-53
2024/02/26 00:13:02;;;;;;;1.13;0.57;;;;;;;;;;4984981;28;86960;-50
2024/02/26 00:15:27;;;;;;;2.70;0.63;;;;;;;;;;4987687;28;89518;-52
2024/02/26 00:17:53;;;;;;;1.17;0.80;;;;;;;;;;4983877;28;87271;-53
2024/02/26 00:20:18;;;;;;;1.13;0.60;;;;;;;;;;4990001;28;87513;-51
2024/02/26 00:22:43;;;;;;;1.33;0.68;;;;;;;;;;4986543;28;86365;-53
2024/02/26 00:25:08;;;;;;;2.13;0.73;;;;;;;;;;4990395;28;87137;-53
2024/02/26 00:27:34;;;;;;;0.63;0.50;;;;;;;;;;4984294;28;87123;-53
2024/02/26 00:29:59;;;;;;;0.30;0.30;;;;;;;;;;4987954;28;88846;-54
2024/02/26 00:32:24;;;;;;;1.03;0.40;;;;;;;;;;4981470;28;88148;-54
2024/02/26 00:34:50;;;;;;;2.13;0.70;;;;;;;;;;4986234;28;87782;-53
2024/02/26 00:37:15;;;;;;;1.40;0.65;;;;;;;;;;4983772;28;87021;-53
2024/02/26 00:39:40;;;;;;;2.75;0.70;;;;;;;;;;4979799;28;87457;-55
2024/02/26 00:42:06;;;;;;;0.60;0.40;;;;;;;;;;4987162;28;88291;-55
2024/02/26 00:44:31;;;;;;;0.83;0.40;;;;;;;;;;4982777;28;86990;-55
2024/02/26 00:46:57;;;;;;;2.33;0.60;;;;;;;;;;4984549;28;86849;-54
2024/02/26 00:49:22;;;;;;;1.87;0.53;;;;;;;;;;4986111;28;87584;-51
2024/02/26 00:51:47;;;;;;;1.63;0.80;;;;;;;;;;4983923;28;87784;-54
2024/02/26 00:54:12;;;;;;;0.53;0.33;;;;;;;;;;4984753;28;88044;-54
2024/02/26 00:56:38;;;;;;;2.25;0.50;;;;;;;;;;4987777;28;86987;-54
2024/02/26 00:59:03;;;;;;;1.13;0.40;;;;;;;;;;4988933;28;87072;-53
2024/02/26 01:01:29;;;;;;;1.83;0.70;;;;;;;;;;4992830;28;88660;-54
2024/02/26 01:03:54;;;;;;;3.30;0.50;;;;;;;;;;4993205;28;87092;-54
2024/02/26 01:06:19;;;;;;;3.50;0.53;;;;;;;;;;4992486;28;87059;-52
2024/02/26 01:08:44;;;;;;;3.70;0.70;;;;;;;;;;4982884;28;87776;-54
2024/02/26 01:11:10;;;;;;;1.20;0.50;;;;;;;;;;4986092;28;87308;-52
2024/02/26 01:13:35;;;;;;;0.77;0.43;;;;;;;;;;4986248;28;87453;-53
2024/02/26 01:16:01;;;;;;;2.17;0.60;;;;;;;;;;4984161;28;87027;-55
2024/02/26 01:18:26;;;;;;;1.58;0.40;;;;;;;;;;4983331;28;88615;-53
2024/02/26 01:20:54;;;;;;;0.77;0.57;;;;;;;;;;4986922;28;86843;-55
2024/02/26 01:23:19;;;;;;;0.60;0.43;;;;;;;;;;4987437;28;87548;-54
2024/02/26 01:25:44;;;;;;;1.27;0.47;;;;;;;;;;4984524;28;86973;-53
2024/02/26 01:28:10;;;;;;;1.10;0.57;;;;;;;;;;4984919;28;87096;-54
2024/02/26 01:30:35;;;;;;;3.17;0.50;;;;;;;;;;4987921;28;87545;-53
2024/02/26 01:33:00;;;;;;;0.70;0.50;;;;;;;;;;4982430;28;87241;-53
2024/02/26 01:35:26;;;;;;;0.70;0.57;;;;;;;;;;4990609;28;86284;-54
2024/02/26 01:37:51;;;;;;;2.50;0.38;;;;;;;;;;4984651;28;86973;-53
2024/02/26 01:40:19;;;;;;;1.10;0.50;;;;;;;;;;4985018;28;87913;-53
2024/02/26 01:42:44;;;;;;;0.70;0.40;;;;;;;;;;4986774;28;88198;-54
2024/02/26 01:45:15;;;;;;;2.40;0.50;;;;;;;;;;4987467;28;87200;-51
2024/02/26 01:47:40;;;;;;;0.52;0.32;;;;;;;;;;4991431;28;87924;-54
2024/02/26 01:50:05;;;;;;;0.80;0.50;;;;;;;;;;4983094;28;87487;-54
2024/02/26 01:52:32;;;;;;;0.40;0.30;;;;;;;;;;4984354;28;87677;-54
2024/02/26 01:54:57;;;;;;;2.72;0.55;;;;;;;;;;4982372;28;86974;-54
2024/02/26 01:57:23;;;;;;;0.53;0.37;;;;;;;;;;4983840;28;88075;-54
2024/02/26 01:59:48;;;;;;;1.20;0.53;;;;;;;;;;4983302;28;86437;-53
2024/02/26 02:02:15;;;;;;;0.37;0.23;;;;;;;;;;4985927;28;88243;-52
2024/02/26 02:04:40;;;;;;;2.40;0.60;;;;;;;;;;4983262;28;87962;-53
2024/02/26 02:07:06;;;;;;;1.20;0.40;;;;;;;;;;4985837;28;92366;-54
2024/02/26 02:09:31;;;;;;;3.23;0.70;;;;;;;;;;4985378;28;87344;-54
2024/02/26 02:11:57;;;;;;;1.10;0.60;;;;;;;;;;4986236;28;87587;-51
2024/02/26 02:14:22;;;;;;;0.55;0.40;;;;;;;;;;4979991;28;87535;-51
2024/02/26 02:16:47;;;;;;;1.53;0.40;;;;;;;;;;4985603;28;87286;-54
2024/02/26 02:19:13;;;;;;;1.42;0.40;;;;;;;;;;4983274;28;88205;-52
2024/02/26 02:21:38;;;;;;;0.80;0.30;;;;;;;;;;4984497;28;87083;-54
2024/02/26 02:24:03;;;;;;;0.93;0.30;;;;;;;;;;4987533;28;87386;-54
2024/02/26 02:26:29;;;;;;;1.33;0.50;;;;;;;;;;4981957;28;87661;-54
2024/02/26 02:28:54;;;;;;;0.50;0.40;;;;;;;;;;4986481;28;87031;-55
2024/02/26 02:31:19;;;;;;;0.63;0.30;;;;;;;;;;4985349;28;87904;-54
2024/02/26 02:33:44;;;;;;;0.63;0.27;;;;;;;;;;4977474;28;87351;-53
2024/02/26 02:36:10;;;;;;;1.00;0.40;;;;;;;;;;4985786;28;87150;-53
2024/02/26 02:38:48;;;;;;;0.85;0.43;;;;;;;;;;4982443;28;87410;-55
2024/02/26 02:41:13;;;;;;;1.65;0.55;;;;;;;;;;4986485;28;87073;-55
2024/02/26 02:43:38;;;;;;;1.80;0.47;;;;;;;;;;4987963;28;86970;-55
2024/02/26 02:46:03;;;;;;;0.80;0.40;;;;;;;;;;4987413;28;88261;-54
2024/02/26 02:48:29;;;;;;;0.97;0.60;;;;;;;;;;4984617;28;86844;-54
2024/02/26 02:50:54;;;;;;;2.77;0.40;;;;;;;;;;4981599;28;86828;-56
2024/02/26 02:53:19;;;;;;;2.93;0.40;;;;;;;;;;4987648;28;87432;-56
2024/02/26 02:55:44;;;;;;;1.27;0.50;;;;;;;;;;4989641;28;87961;-54
2024/02/26 02:58:09;;;;;;;2.80;0.50;;;;;;;;;;4986657;28;87342;-55
2024/02/26 03:00:35;;;;;;;4.57;0.33;;;;;;;;;;4986816;28;87116;-54
2024/02/26 03:03:00;;;;;;;0.33;0.30;;;;;;;;;;4987187;28;87013;-53
2024/02/26 03:05:25;;;;;;;2.97;0.50;;;;;;;;;;4983452;28;87630;-52
2024/02/26 03:07:51;;;;;;;0.40;0.20;;;;;;;;;;4983989;28;92405;-54
2024/02/26 03:10:16;;;;;;;0.47;0.30;;;;;;;;;;4986432;28;87571;-55
2024/02/26 03:12:41;;;;;;;1.37;0.50;;;;;;;;;;4987679;28;87217;-53
2024/02/26 03:15:07;;;;;;;0.60;0.30;;;;;;;;;;4988557;28;87127;-53
2024/02/26 03:17:32;;;;;;;0.70;0.40;;;;;;;;;;4988471;28;86982;-54
2024/02/26 03:19:57;;;;;;;2.80;0.47;;;;;;;;;;4982230;28;87945;-56
2024/02/26 03:22:22;;;;;;;0.88;0.32;;;;;;;;;;4989799;28;87232;-52
2024/02/26 03:24:48;;;;;;;0.90;0.40;;;;;;;;;;4984094;28;86900;-54
2024/02/26 03:27:14;;;;;;;2.00;0.35;;;;;;;;;;4990080;28;87373;-55
2024/02/26 03:29:39;;;;;;;1.35;0.57;;;;;;;;;;4990899;28;88010;-56
2024/02/26 03:32:05;;;;;;;0.63;0.20;;;;;;;;;;4981266;28;87765;-54
2024/02/26 03:34:30;;;;;;;0.73;0.30;;;;;;;;;;4990958;28;87035;-54
2024/02/26 03:36:56;;;;;;;1.17;0.50;;;;;;;;;;4989550;28;86749;-55
2024/02/26 03:39:22;;;;;;;1.80;0.43;;;;;;;;;;4989729;28;87111;-54
2024/02/26 03:41:47;;;;;;;0.30;0.20;;;;;;;;;;4983286;28;86949;-51
2024/02/26 03:44:12;;;;;;;0.87;0.50;;;;;;;;;;4984331;28;88739;-53
2024/02/26 03:46:38;;;;;;;1.40;0.50;;;;;;;;;;4986779;28;87119;-52
2024/02/26 03:49:03;;;;;;;2.73;0.40;;;;;;;;;;4985278;28;87658;-55
2024/02/26 03:51:31;;;;;;;1.13;0.60;;;;;;;;;;4985485;28;87404;-55
2024/02/26 03:53:56;;;;;;;3.00;0.30;;;;;;;;;;4991912;28;86943;-53
2024/02/26 03:56:23;;;;;;;0.47;0.40;;;;;;;;;;4986493;28;87780;-56
2024/02/26 03:58:48;;;;;;;1.97;0.40;;;;;;;;;;4986238;28;87079;-56
2024/02/26 04:01:13;;;;;;;0.80;0.20;;;;;;;;;;4988439;28;87310;-55
2024/02/26 04:03:38;;;;;;;0.80;0.20;;;;;;;;;;4983330;28;87748;-56
2024/02/26 04:06:04;;;;;;;0.40;0.30;;;;;;;;;;4982348;28;87971;-56
2024/02/26 04:08:29;;;;;;;0.50;0.40;;;;;;;;;;4989087;28;87853;-53
2024/02/26 04:10:54;;;;;;;0.83;0.40;;;;;;;;;;4983092;28;87818;-54
2024/02/26 04:13:19;;;;;;;0.87;0.40;;;;;;;;;;4983916;28;87149;-55
2024/02/26 04:15:46;;;;;;;1.00;0.30;;;;;;;;;;4986774;28;87472;-54
2024/02/26 04:18:11;;;;;;;0.20;0.20;;;;;;;;;;4984235;28;87362;-54
2024/02/26 04:20:36;;;;;;;1.50;0.33;;;;;;;;;;4982119;28;87104;-55
2024/02/26 04:23:02;;;;;;;0.20;0.20;;;;;;;;;;4989206;28;87006;-53
2024/02/26 04:25:28;;;;;;;1.37;0.40;;;;;;;;;;4981530;28;86444;-55
2024/02/26 04:27:54;;;;;;;0.80;0.20;;;;;;;;;;4975197;28;87608;-55
2024/02/26 04:30:19;;;;;;;0.52;0.30;;;;;;;;;;4987590;28;88154;-56
2024/02/26 04:32:45;;;;;;;0.27;0.20;;;;;;;;;;4987874;28;88343;-53
2024/02/26 04:35:10;;;;;;;0.80;0.30;;;;;;;;;;4985840;28;88301;-52
2024/02/26 04:37:35;;;;;;;1.13;0.40;;;;;;;;;;4992078;28;87652;-55
2024/02/26 04:40:01;;;;;;;1.03;0.60;;;;;;;;;;4986908;28;87253;-55
2024/02/26 04:42:27;;;;;;;0.83;0.37;;;;;;;;;;4983278;28;86870;-54
2024/02/26 04:44:52;;;;;;;0.52;0.35;;;;;;;;;;4985640;28;86834;-54
2024/02/26 04:47:17;;;;;;;0.33;0.20;;;;;;;;;;4983396;28;87045;-55
2024/02/26 04:49:42;;;;;;;0.57;0.27;;;;;;;;;;4979374;28;86973;-54
2024/02/26 04:52:08;;;;;;;1.00;0.30;;;;;;;;;;4982750;28;87068;-53
2024/02/26 04:54:33;;;;;;;1.00;0.40;;;;;;;;;;4987707;28;87342;-54
2024/02/26 04:56:58;;;;;;;2.60;0.37;;;;;;;;;;4981433;28;89154;-54
2024/02/26 04:59:24;;;;;;;0.20;0.20;;;;;;;;;;4987895;28;87055;-55
2024/02/26 05:01:51;;;;;;;1.50;0.50;;;;;;;;;;4984054;28;87016;-55
2024/02/26 05:04:16;;;;;;;0.80;0.40;;;;;;;;;;4987691;28;87156;-55
2024/02/26 05:06:41;;;;;;;0.50;0.33;;;;;;;;;;4981319;28;87130;-55
2024/02/26 05:09:06;;;;;;;1.00;0.30;;;;;;;;;;4986322;28;87945;-55
2024/02/26 05:11:31;;;;;;;0.50;0.30;;;;;;;;;;4982113;28;87832;-52
2024/02/26 05:13:57;;;;;;;0.63;0.20;;;;;;;;;;4981247;28;89843;-56
2024/02/26 05:16:24;;;;;;;0.57;0.27;;;;;;;;;;4981600;28;87262;-55
2024/02/26 05:18:49;;;;;;;0.40;0.22;;;;;;;;;;4983305;28;87924;-56
2024/02/26 05:21:15;;;;;;;1.53;0.67;;;;;;;;;;4992279;28;87993;-53
2024/02/26 05:23:40;;;;;;;0.40;0.30;;;;;;;;;;4986988;28;87256;-52
2024/02/26 05:26:05;;;;;;;0.50;0.40;;;;;;;;;;4990608;28;87711;-51
2024/02/26 05:28:31;;;;;;;0.23;0.20;;;;;;;;;;4981959;28;87305;-63
2024/02/26 05:30:56;;;;;;;0.25;0.10;;;;;;;;;;4979902;28;87312;-60
2024/02/26 05:33:23;;;;;;;2.53;0.50;;;;;;;;;;4980308;28;87244;-56
2024/02/26 05:35:48;;;;;;;1.70;0.47;;;;;;;;;;4983819;28;87780;-56
2024/02/26 05:38:13;;;;;;;1.00;0.20;;;;;;;;;;4980685;28;87062;-55
2024/02/26 05:40:38;;;;;;;0.60;0.37;;;;;;;;;;4983085;28;87450;-53
2024/02/26 05:43:04;;;;;;;0.50;0.20;;;;;;;;;;4981465;28;87842;-56
2024/02/26 05:45:29;;;;;;;1.80;0.30;;;;;;;;;;4981167;28;87949;-56
2024/02/26 05:47:54;;;;;;;1.60;0.10;;;;;;;;;;4982860;28;86797;-55
2024/02/26 05:50:19;;;;;;;1.37;0.50;;;;;;;;;;4982518;28;87281;-56
2024/02/26 05:52:44;;;;;;;0.40;0.37;;;;;;;;;;4985667;28;87916;-54
2024/02/26 05:55:10;;;;;;;0.73;0.30;;;;;;;;;;4982185;28;87665;-55
2024/02/26 05:57:35;;;;;;;0.30;0.20;;;;;;;;;;4976505;28;87367;-55
2024/02/26 06:00:03;;;;;;;2.05;0.40;;;;;;;;;;4973999;28;87493;-54
2024/02/26 06:02:31;;;;;;;0.38;0.20;;;;;;;;;;4979065;28;86847;-53
2024/02/26 06:04:57;;;;;;;0.55;0.20;;;;;;;;;;4980791;28;87824;-52
2024/02/26 06:07:22;;;;;;;1.00;0.30;;;;;;;;;;4981898;28;87676;-53
2024/02/26 06:09:48;;;;;;;0.63;0.40;;;;;;;;;;4981567;28;88254;-56
2024/02/26 06:12:13;;;;;;;1.23;0.30;;;;;;;;;;4982076;28;87538;-53
2024/02/26 06:14:38;;;;;;;0.43;0.20;;;;;;;;;;4988385;28;88002;-55
2024/02/26 06:17:04;;;;;;;0.50;0.20;;;;;;;;;;4983022;28;86937;-56
2024/02/26 06:19:29;;;;;;;0.53;0.30;;;;;;;;;;4976322;28;86996;-56
2024/02/26 06:21:54;;;;;;;1.30;0.40;;;;;;;;;;4978390;28;87775;-55
2024/02/26 06:24:20;;;;;;;0.93;0.40;;;;;;;;;;4984548;28;86991;-56
2024/02/26 06:26:46;;;;;;;0.43;0.22;;;;;;;;;;4984455;28;86444;-56
2024/02/26 06:29:11;;;;;;;0.25;0.20;;;;;;;;;;4982732;28;87204;-56
2024/02/26 06:31:37;;;;;;;0.57;0.27;;;;;;;;;;4987425;28;88304;-56
2024/02/26 06:34:03;;;;;;;0.70;0.40;;;;;;;;;;4981618;28;88441;-56
2024/02/26 06:36:28;;;;;;;1.00;0.30;;;;;;;;;;4984717;28;87719;-57
2024/02/26 06:38:54;;;;;;;0.50;0.20;;;;;;;;;;4979375;28;88106;-53
2024/02/26 06:41:19;;;;;;;0.30;0.27;;;;;;;;;;4983828;28;87630;-57
2024/02/26 06:43:44;;;;;;;1.20;0.30;;;;;;;;;;4989494;28;87220;-56
2024/02/26 06:46:09;;;;;;;0.50;0.30;;;;;;;;;;4986779;28;87040;-54
2024/02/26 06:48:36;;;;;;;1.80;0.37;;;;;;;;;;4988600;28;87760;-54
2024/02/26 06:51:02;;;;;;;1.60;0.40;;;;;;;;;;4985484;28;87455;-54
2024/02/26 06:53:27;;;;;;;0.60;0.30;;;;;;;;;;4982593;28;87552;-56
2024/02/26 06:55:52;;;;;;;1.30;0.40;;;;;;;;;;4981114;28;87053;-55
2024/02/26 06:58:17;;;;;;;2.30;0.60;;;;;;;;;;4984012;28;87816;-54
2024/02/26 07:00:43;;;;;;;2.50;0.50;;;;;;;;;;4981892;28;88145;-56
2024/02/26 07:03:08;;;;;;;1.67;0.67;;;;;;;;;;4980085;28;87488;-57
2024/02/26 07:05:33;;;;;;;3.67;0.60;;;;;;;;;;4982068;28;89571;-56
2024/02/26 07:07:58;;;;;;;0.50;0.33;;;;;;;;;;4982754;28;87872;-56
2024/02/26 07:10:24;;;;;;;2.23;1.07;;;;;;;;;;4981771;28;86952;-57
2024/02/26 07:12:49;;;;;;;3.38;0.63;;;;;;;;;;4980008;28;87451;-57
2024/02/26 07:15:15;;;;;;;4.88;0.98;;;;;;;;;;4985440;28;86564;-56
2024/02/26 07:17:41;;;;;;;0.70;0.40;;;;;;;;;;4978742;28;86976;-57
2024/02/26 07:20:07;;;;;;;2.83;0.80;;;;;;;;;;4988500;28;87919;-57
2024/02/26 07:22:42;;;;;;;4.60;0.80;;;;;;;;;;4981287;28;88894;-56
2024/02/26 07:25:08;;;;;;;6.75;1.17;;;;;;;;;;4985972;28;88395;-57
2024/02/26 07:27:34;;;;;;;2.30;0.80;;;;;;;;;;4980338;28;87551;-57
2024/02/26 07:29:59;;;;;;;2.53;0.73;;;;;;;;;;4979976;28;87406;-56
2024/02/26 07:32:25;;;;;;;10.73;1.00;;;;;;;;;;4980507;28;87825;-58
2024/02/26 07:34:50;;;;;;;2.30;0.77;;;;;;;;;;4977716;28;87637;-57
2024/02/26 07:37:16;;;;;;;1.07;0.60;;;;;;;;;;4984672;28;87404;-58
2024/02/26 07:39:41;;;;;;;1.00;0.50;;;;;;;;;;4980007;28;86195;-58
2024/02/26 07:42:06;;;;;;;6.60;0.80;;;;;;;;;;4980805;28;88241;-58
2024/02/26 07:44:32;;;;;;;2.93;0.77;;;;;;;;;;4979039;28;87245;-58
2024/02/26 07:46:58;;;;;;;4.30;0.98;;;;;;;;;;4978078;28;88363;-58
2024/02/26 07:49:23;;;;;;;1.27;0.47;;;;;;;;;;4981634;28;87142;-56
2024/02/26 07:51:48;;;;;;;2.53;0.73;;;;;;;;;;4983604;28;87550;-56
2024/02/26 07:54:15;;;;;;;5.27;0.80;;;;;;;;;;4981497;28;87264;-55
2024/02/26 07:56:41;;;;;;;7.28;1.52;;;;;;;;;;4986607;28;87561;-57
2024/02/26 07:59:12;;;;;;;5.73;1.30;;;;;;;;;;4977576;28;87278;-57
2024/02/26 08:01:44;;;;;;;4.22;1.27;;;;;;;;;;4981139;28;87532;-57
2024/02/26 08:04:09;;;;;;;3.50;1.10;;;;;;;;;;4980609;28;86463;-56
2024/02/26 08:06:50;;;;;;;1.90;0.70;;;;;;;;;;4975334;28;87619;-57
2024/02/26 08:09:15;;;;;;;4.28;0.85;;;;;;;;;;4979151;28;87865;-56
2024/02/26 08:11:40;;;;;;;5.23;1.03;;;;;;;;;;4976373;28;89059;-57
2024/02/26 08:14:05;;;;;;;5.30;0.60;;;;;;;;;;4979793;28;87488;-57
2024/02/26 08:16:31;;;;;;;9.77;1.10;;;;;;;;;;4976599;28;89199;-57
2024/02/26 08:18:57;;;;;;;3.20;1.30;;;;;;;;;;4981791;28;87912;-57
2024/02/26 08:21:23;;;;;;;4.40;0.70;;;;;;;;;;4977477;28;87305;-56
2024/02/26 08:23:48;;;;;;;8.13;0.87;;;;;;;;;;4979950;28;87614;-56
2024/02/26 08:26:13;;;;;;;9.70;1.50;;;;;;;;;;4978183;28;87972;-56
2024/02/26 08:28:39;;;;;;;4.40;0.83;;;;;;;;;;4979857;28;86600;-55
2024/02/26 08:31:04;;;;;;;1.70;0.93;;;;;;;;;;4979953;28;87083;-57
2024/02/26 08:33:30;;;;;;;2.60;0.53;;;;;;;;;;4983868;28;87560;-56
2024/02/26 08:35:56;;;;;;;2.40;0.90;;;;;;;;;;4978819;28;89287;-57
2024/02/26 08:38:21;;;;;;;3.65;0.75;;;;;;;;;;4980859;28;86976;-57
2024/02/26 08:40:47;;;;;;;0.80;0.33;;;;;;;;;;4990567;28;87348;-57
2024/02/26 08:43:13;;;;;;;2.10;0.70;;;;;;;;;;4981151;28;87479;-54
2024/02/26 08:45:38;;;;;;;4.67;0.63;;;;;;;;;;4979624;28;87686;-57
2024/02/26 08:48:03;;;;;;;2.33;0.73;;;;;;;;;;4979573;28;87075;-57
2024/02/26 08:50:28;;;;;;;5.70;0.60;;;;;;;;;;4977277;28;87835;-59
2024/02/26 08:52:54;;;;;;;1.63;0.50;;;;;;;;;;4981914;28;86564;-56
2024/02/26 08:55:19;;;;;;;2.70;0.60;;;;;;;;;;4977442;28;87845;-57
2024/02/26 08:57:45;;;;;;;3.15;0.70;;;;;;;;;;4976159;28;87842;-55
2024/02/26 09:00:12;;;;;;;4.72;0.82;;;;;;;;;;4978443;28;88691;-57
2024/02/26 09:02:40;;;;;;;4.37;0.80;;;;;;;;;;4977382;28;88346;-56
2024/02/26 09:05:05;;;;;;;24.58;10.68;;;;;;;;;;4981971;28;87951;-56
2024/02/26 09:07:31;;;;;;;14.50;5.73;;;;;;;;;;4975413;28;87737;-57
2024/02/26 09:09:56;;;;;;;12.30;4.57;;;;;;;;;;4982155;28;87366;-56
2024/02/26 09:12:21;;;;;;;9.90;3.50;;;;;;;;;;4983819;28;87194;-54
2024/02/26 09:14:47;;;;;;;8.13;3.40;;;;;;;;;;4980772;28;87066;-56
2024/02/26 09:17:12;;;;;;;5.70;2.42;;;;;;;;;;4985469;28;87132;-56
2024/02/26 09:19:37;;;;;;;3.60;1.73;;;;;;;;;;4980383;28;87619;-56
2024/02/26 09:22:03;;;;;;;4.27;2.23;;;;;;;;;;4978042;28;87560;-55
2024/02/26 09:24:28;;;;;;;32.63;12.40;;;;;;;;;;4977315;28;88543;-56
2024/02/26 09:26:53;;;;;;;59.70;26.97;;;;;;;;;;4974668;28;87489;-56
2024/02/26 09:29:19;;;;;;;45.17;20.77;;;;;;;;;;4969483;28;88111;-55
2024/02/26 09:31:47;;;;;;;35.77;16.47;;;;;;;;;;4973536;28;87113;-57
2024/02/26 09:34:13;;;;;;;34.30;14.20;;;;;;;;;;4980079;28;86863;-53
2024/02/26 09:36:39;;;;;;;27.92;11.57;;;;;;;;;;4978228;28;87193;-56
2024/02/26 09:39:05;;;;;;;23.33;10.18;;;;;;;;;;4978450;28;90131;-56
2024/02/26 09:41:30;;;;;;;16.83;7.73;;;;;;;;;;4974689;28;87539;-57
2024/02/26 09:43:56;;;;;;;17.47;7.63;;;;;;;;;;4976761;28;87640;-57
2024/02/26 09:46:22;;;;;;;14.63;5.63;;;;;;;;;;4979274;28;86955;-58
2024/02/26 09:48:48;;;;;;;11.43;5.87;;;;;;;;;;4984746;28;88123;-57
2024/02/26 09:51:14;;;;;;;11.77;4.80;;;;;;;;;;4975824;28;87794;-57
2024/02/26 09:53:42;;;;;;;9.70;3.78;;;;;;;;;;4977678;28;87133;-57
2024/02/26 09:56:32;;;;;;;11.18;3.50;;;;;;;;;;4979497;28;87200;-58
2024/02/26 09:58:57;;;;;;;5.78;2.50;;;;;;;;;;4981451;28;88004;-53
2024/02/26 10:01:27;;;;;;;3.60;1.93;;;;;;;;;;4981428;28;88046;-56
2024/02/26 10:03:55;;;;;;;7.10;2.40;;;;;;;;;;4974040;28;87173;-58
2024/02/26 10:06:20;;;;;;;4.73;2.00;;;;;;;;;;4983371;28;86510;-56
2024/02/26 10:08:46;;;;;;;3.60;1.52;;;;;;;;;;4976389;28;87316;-56
2024/02/26 10:11:13;;;;;;;4.25;1.48;;;;;;;;;;4975205;28;88674;-57
2024/02/26 10:13:38;;;;;;;3.30;1.33;;;;;;;;;;4974002;28;88278;-57
2024/02/26 10:16:03;;;;;;;5.50;1.93;;;;;;;;;;4978559;28;90341;-57
2024/02/26 10:18:48;;;;;;;6.97;1.43;;;;;;;;;;4978317;28;87112;-55
2024/02/26 10:21:21;;;;;;;7.17;1.47;;;;;;;;;;4987601;28;87139;-57
2024/02/26 10:23:50;;;;;;;3.20;1.08;;;;;;;;;;4976058;28;88167;-56
2024/02/26 10:26:15;;;;;;;2.53;1.25;;;;;;;;;;4982456;28;87067;-56
2024/02/26 10:28:41;;;;;;;5.40;1.40;;;;;;;;;;4975082;28;87225;-58
2024/02/26 10:31:07;;;;;;;3.47;0.73;;;;;;;;;;4982937;28;86645;-57
2024/02/26 10:33:36;;;;;;;3.33;1.10;;;;;;;;;;4978136;28;87392;-58
2024/02/26 10:36:01;;;;;;;3.45;1.13;;;;;;;;;;4984005;28;87568;-58
2024/02/26 10:38:27;;;;;;;4.10;1.00;;;;;;;;;;4975802;28;88735;-58
2024/02/26 10:40:52;;;;;;;2.73;0.87;;;;;;;;;;4981263;28;88653;-58
2024/02/26 10:43:18;;;;;;;2.20;0.73;;;;;;;;;;4982619;28;88129;-58
2024/02/26 10:45:44;;;;;;;6.35;0.90;;;;;;;;;;4979677;28;87356;-58
2024/02/26 10:48:11;;;;;;;2.17;0.97;;;;;;;;;;4978307;28;87285;-57
2024/02/26 10:50:36;;;;;;;1.70;0.90;;;;;;;;;;4977845;28;86987;-57
2024/02/26 10:53:02;;;;;;;4.20;0.87;;;;;;;;;;4979447;28;87234;-56
2024/02/26 10:55:27;;;;;;;2.97;0.80;;;;;;;;;;4980407;28;87734;-58
2024/02/26 10:57:52;;;;;;;4.30;0.77;;;;;;;;;;4973982;28;87747;-57
2024/02/26 11:00:18;;;;;;;2.37;0.60;;;;;;;;;;4975523;28;87731;-54
2024/02/26 11:02:44;;;;;;;3.93;0.80;;;;;;;;;;4977404;28;87924;-55
2024/02/26 11:05:11;;;;;;;7.50;0.90;;;;;;;;;;4978606;28;87533;-56
2024/02/26 11:07:37;;;;;;;2.58;0.60;;;;;;;;;;4977709;28;87690;-57
2024/02/26 11:10:03;;;;;;;3.78;0.68;;;;;;;;;;4977737;28;87040;-52
2024/02/26 11:12:30;;;;;;;4.18;0.85;;;;;;;;;;4975176;28;86868;-57
2024/02/26 11:15:04;;;;;;;4.75;0.50;;;;;;;;;;4978216;28;87489;-56
2024/02/26 11:17:31;;;;;;;4.20;1.00;;;;;;;;;;4982894;28;87531;-55
2024/02/26 11:19:57;;;;;;;2.35;0.68;;;;;;;;;;4977905;28;86228;-57
2024/02/26 11:22:26;;;;;;;5.57;1.20;;;;;;;;;;4982263;28;87083;-56
2024/02/26 11:24:51;;;;;;;2.00;0.60;;;;;;;;;;4980249;28;87834;-57
2024/02/26 11:27:18;;;;;;;3.00;0.63;;;;;;;;;;4980072;28;88049;-57
2024/02/26 11:29:47;;;;;;;2.65;0.50;;;;;;;;;;4980039;28;88510;-57
2024/02/26 11:32:12;;;;;;;4.00;0.65;;;;;;;;;;4980876;28;87374;-56
2024/02/26 11:34:38;;;;;;;3.97;1.20;;;;;;;;;;4980875;28;88554;-57
2024/02/26 11:37:16;;;;;;;4.82;0.50;;;;;;;;;;4984476;28;86965;-55
2024/02/26 11:39:41;;;;;;;2.80;0.70;;;;;;;;;;4978561;28;87357;-57
2024/02/26 11:42:08;;;;;;;4.13;0.70;;;;;;;;;;4979059;28;87482;-56
2024/02/26 11:44:36;;;;;;;1.60;0.40;;;;;;;;;;4982644;28;86777;-57
2024/02/26 11:47:21;;;;;;;1.10;0.50;;;;;;;;;;4976096;28;87890;-55
2024/02/26 11:49:46;;;;;;;3.70;0.90;;;;;;;;;;4987737;28;87205;-56
2024/02/26 11:52:13;;;;;;;1.47;0.63;;;;;;;;;;4978861;28;88164;-56
2024/02/26 11:54:49;;;;;;;1.00;0.40;;;;;;;;;;4979646;28;87233;-57
2024/02/26 11:57:23;;;;;;;3.00;0.57;;;;;;;;;;4981768;28;87782;-57
2024/02/26 11:59:49;;;;;;;1.50;0.52;;;;;;;;;;4975935;28;87899;-55
2024/02/26 12:02:33;;;;;;;1.58;0.50;;;;;;;;;;4977531;28;89293;-53
2024/02/26 12:05:09;;;;;;;1.40;0.70;;;;;;;;;;4976916;28;86982;-58
2024/02/26 12:07:35;;;;;;;2.38;0.80;;;;;;;;;;4979787;28;86983;-54
2024/02/26 12:10:19;;;;;;;2.90;0.35;;;;;;;;;;4981109;28;86512;-56
2024/02/26 12:12:44;;;;;;;2.72;0.73;;;;;;;;;;4981765;28;87384;-53
2024/02/26 12:15:11;;;;;;;4.03;0.90;;;;;;;;;;4979625;28;87277;-57
2024/02/26 12:17:36;;;;;;;2.50;0.45;;;;;;;;;;4980059;28;88210;-55
2024/02/26 12:20:09;;;;;;;2.03;0.57;;;;;;;;;;4975232;28;87479;-55
2024/02/26 12:22:41;;;;;;;5.40;0.80;;;;;;;;;;4977713;28;87005;-55
2024/02/26 12:25:09;;;;;;;1.25;0.40;;;;;;;;;;4978495;28;88403;-55
2024/02/26 12:27:34;;;;;;;2.42;0.70;;;;;;;;;;4981104;28;87695;-55
2024/02/26 12:30:00;;;;;;;1.13;0.50;;;;;;;;;;4979183;28;87162;-56
2024/02/26 12:32:25;;;;;;;0.90;0.40;;;;;;;;;;4980529;28;87251;-57
2024/02/26 12:34:50;;;;;;;1.17;0.63;;;;;;;;;;4983376;28;86923;-55
2024/02/26 12:37:16;;;;;;;1.30;0.50;;;;;;;;;;4980323;28;86984;-56
2024/02/26 12:39:42;;;;;;;1.70;0.65;;;;;;;;;;4981503;28;87025;-56
2024/02/26 12:42:08;;;;;;;1.67;0.47;;;;;;;;;;4978338;28;88193;-54
2024/02/26 12:44:34;;;;;;;1.43;0.70;;;;;;;;;;4980903;28;88019;-56
2024/02/26 12:47:05;;;;;;;1.63;0.55;;;;;;;;;;4980263;28;87550;-55
2024/02/26 12:49:31;;;;;;;2.45;0.60;;;;;;;;;;4976757;28;87443;-56
2024/02/26 12:52:03;;;;;;;0.50;0.37;;;;;;;;;;4979430;28;87392;-56
2024/02/26 12:54:29;;;;;;;1.38;0.52;;;;;;;;;;4986288;28;87170;-54
2024/02/26 12:56:54;;;;;;;1.30;0.40;;;;;;;;;;4974720;28;87197;-53
2024/02/26 12:59:20;;;;;;;0.77;0.57;;;;;;;;;;4997360;28;86721;-56
2024/02/26 13:01:45;;;;;;;1.33;0.47;;;;;;;;;;4980374;28;87087;-53
2024/02/26 13:04:29;;;;;;;2.57;0.40;;;;;;;;;;4976414;28;87202;-56
2024/02/26 13:06:55;;;;;;;0.73;0.55;;;;;;;;;;4975156;28;87809;-53
2024/02/26 13:09:22;;;;;;;0.90;0.40;;;;;;;;;;4978457;28;90897;-54
2024/02/26 13:11:52;;;;;;;0.68;0.63;;;;;;;;;;4974658;28;87306;-56
2024/02/26 13:14:21;;;;;;;0.75;0.52;;;;;;;;;;4975559;28;87651;-56
2024/02/26 13:16:55;;;;;;;0.85;0.50;;;;;;;;;;4982321;28;87102;-54
2024/02/26 13:19:21;;;;;;;3.95;0.80;;;;;;;;;;4972987;28;86981;-56
2024/02/26 13:21:47;;;;;;;2.20;0.60;;;;;;;;;;4980067;28;87715;-55
2024/02/26 13:24:15;;;;;;;2.50;0.70;;;;;;;;;;4981924;28;86318;-56
2024/02/26 13:26:40;;;;;;;3.30;0.60;;;;;;;;;;4975354;28;86970;-56
2024/02/26 13:29:06;;;;;;;3.50;0.40;;;;;;;;;;4981403;28;87585;-54
2024/02/26 13:31:31;;;;;;;2.47;0.53;;;;;;;;;;4978836;28;89316;-55
2024/02/26 13:33:57;;;;;;;2.00;0.30;;;;;;;;;;4981096;28;87138;-56
2024/02/26 13:36:22;;;;;;;1.30;0.37;;;;;;;;;;4980698;28;87146;-56
2024/02/26 13:38:54;;;;;;;1.98;0.50;;;;;;;;;;4982674;28;87320;-52
2024/02/26 13:41:20;;;;;;;0.43;0.32;;;;;;;;;;4975937;28;87461;-57
2024/02/26 13:43:46;;;;;;;1.58;0.57;;;;;;;;;;4978864;28;87505;-57
2024/02/26 13:46:12;;;;;;;1.02;0.50;;;;;;;;;;4985316;28;87234;-55
2024/02/26 13:48:38;;;;;;;1.08;0.47;;;;;;;;;;4978512;28;86361;-54
2024/02/26 13:51:06;;;;;;;1.43;0.50;;;;;;;;;;4979150;28;87525;-55
2024/02/26 13:53:32;;;;;;;1.10;0.50;;;;;;;;;;4983143;28;87763;-55
2024/02/26 13:56:00;;;;;;;0.98;0.60;;;;;;;;;;4981954;28;87922;-53
2024/02/26 13:58:27;;;;;;;1.20;0.60;;;;;;;;;;4980730;28;87769;-53
2024/02/26 14:00:52;;;;;;;1.10;0.60;;;;;;;;;;4978125;28;87195;-56
2024/02/26 14:03:17;;;;;;;1.70;0.50;;;;;;;;;;4980800;28;86966;-56
2024/02/26 14:05:43;;;;;;;0.85;0.60;;;;;;;;;;4977020;28;87011;-56
2024/02/26 14:08:08;;;;;;;1.00;0.30;;;;;;;;;;4979095;28;87133;-54
2024/02/26 14:10:33;;;;;;;1.20;0.60;;;;;;;;;;4981898;28;87823;-57
2024/02/26 14:12:59;;;;;;;1.70;0.60;;;;;;;;;;4978791;28;86388;-54
2024/02/26 14:15:25;;;;;;;1.30;0.50;;;;;;;;;;4980511;28;87262;-56
2024/02/26 14:17:54;;;;;;;2.30;0.60;;;;;;;;;;4976749;28;87652;-53
2024/02/26 14:20:20;;;;;;;2.75;0.43;;;;;;;;;;4976568;28;88385;-55
2024/02/26 14:22:45;;;;;;;0.57;0.38;;;;;;;;;;4982533;28;87322;-57
2024/02/26 14:25:10;;;;;;;0.70;0.50;;;;;;;;;;4977945;28;86874;-57
2024/02/26 14:27:36;;;;;;;2.50;0.40;;;;;;;;;;4982341;28;86822;-55
2024/02/26 14:30:01;;;;;;;0.65;0.32;;;;;;;;;;4977034;28;87861;-58
2024/02/26 14:32:27;;;;;;;1.80;0.50;;;;;;;;;;4977164;28;87583;-56
2024/02/26 14:34:52;;;;;;;1.92;0.70;;;;;;;;;;4977593;28;87184;-58
2024/02/26 14:37:17;;;;;;;0.80;0.50;;;;;;;;;;4980105;28;87174;-58